Time;durP1;ratioP1;P1;durP2;ratioP2;P2;SDS_P1;SDS_P2;PMS_P1;PMS_P2;Temp;Humidity;BMP_temperature;BMP_pressure;BME280_temperature;BME280_humidity;BME280_pressure;Samples;Min_cycle;Max_cycle;Signal;HPM_P1;HPM_P2
2023/11/26 00:00:12;;;;;;;29.30;13.00;;;;;;;-11.83;100.00;100111.16;5035433;28;20307;-65
2023/11/26 00:02:38;;;;;;;17.50;12.43;;;;;;;-11.86;100.00;100088.09;5034551;28;20033;-64
2023/11/26 00:05:10;;;;;;;19.93;12.97;;;;;;;-11.67;100.00;100133.78;5034512;28;20107;-63
2023/11/26 00:07:38;;;;;;;20.63;13.32;;;;;;;-11.79;100.00;100123.03;5032846;28;20039;-65
2023/11/26 00:10:04;;;;;;;26.67;14.83;;;;;;;-11.88;100.00;100124.09;5034514;28;20556;-64
2023/11/26 00:12:32;;;;;;;22.33;14.20;;;;;;;-11.94;100.00;100129.38;5033034;28;20041;-65
2023/11/26 00:14:58;;;;;;;20.57;12.43;;;;;;;-12.12;100.00;100115.28;5034215;28;20051;-65
2023/11/26 00:17:24;;;;;;;23.70;14.23;;;;;;;-12.33;100.00;100085.84;5030887;28;20045;-62
2023/11/26 00:19:50;;;;;;;29.23;13.90;;;;;;;-12.16;100.00;100123.06;5033869;28;20033;-64
2023/11/26 00:22:15;;;;;;;25.80;13.20;;;;;;;-12.32;100.00;100108.03;5033936;28;20055;-65
2023/11/26 00:24:41;;;;;;;19.83;14.53;;;;;;;-12.32;100.00;100113.19;5034050;28;20049;-65
2023/11/26 00:27:07;;;;;;;27.47;16.30;;;;;;;-12.09;100.00;100134.91;5033656;28;20056;-64
2023/11/26 00:29:40;;;;;;;32.00;20.33;;;;;;;-12.20;100.00;100105.19;5033931;28;20409;-63
2023/11/26 00:32:07;;;;;;;36.45;22.83;;;;;;;-12.07;100.00;100128.00;5034045;28;20048;-65
2023/11/26 00:34:34;;;;;;;35.47;21.38;;;;;;;-12.28;100.00;100119.91;5032692;28;20052;-64
2023/11/26 00:37:00;;;;;;;28.95;17.23;;;;;;;-12.34;100.00;100134.63;5032646;28;20445;-64
2023/11/26 00:39:26;;;;;;;23.87;16.53;;;;;;;-12.39;100.00;100152.69;5033469;28;20091;-65
2023/11/26 00:41:52;;;;;;;24.85;15.98;;;;;;;-12.58;100.00;100141.13;5033622;28;20033;-64
2023/11/26 00:44:17;;;;;;;33.90;21.03;;;;;;;-12.65;100.00;100165.22;5033776;28;20037;-66
2023/11/26 00:46:43;;;;;;;27.93;16.27;;;;;;;-12.66;100.00;100163.53;5033351;28;20128;-65
2023/11/26 00:49:08;;;;;;;32.60;18.60;;;;;;;-12.63;100.00;100171.16;5033580;28;20175;-64
2023/11/26 00:51:34;;;;;;;32.80;17.87;;;;;;;-12.95;100.00;100136.78;5034106;28;20041;-64
2023/11/26 00:54:00;;;;;;;27.40;15.27;;;;;;;-13.03;100.00;100141.19;5034190;28;20040;-65
2023/11/26 00:56:26;;;;;;;26.57;14.47;;;;;;;-12.92;100.00;100180.31;5033168;28;20041;-64
2023/11/26 00:58:52;;;;;;;20.70;12.45;;;;;;;-13.14;100.00;100176.47;5033573;28;20041;-65
2023/11/26 01:01:18;;;;;;;20.53;11.87;;;;;;;-13.39;100.00;100149.63;5033986;28;20033;-64
2023/11/26 01:03:43;;;;;;;22.83;13.40;;;;;;;-13.15;100.00;100190.16;5031890;28;20452;-65
2023/11/26 01:06:09;;;;;;;22.10;13.33;;;;;;;-13.18;100.00;100195.38;5033401;28;20045;-63
2023/11/26 01:08:35;;;;;;;21.20;12.30;;;;;;;-13.35;100.00;100182.00;5033163;28;20129;-64
2023/11/26 01:11:05;;;;;;;19.05;13.23;;;;;;;-13.29;100.00;100203.25;5033356;28;20037;-64
2023/11/26 01:13:31;;;;;;;21.42;13.68;;;;;;;-13.51;100.00;100158.41;5033348;28;20469;-64
2023/11/26 01:15:56;;;;;;;25.37;13.00;;;;;;;-13.25;100.00;100186.09;5033078;28;20033;-66
2023/11/26 01:18:22;;;;;;;21.10;12.77;;;;;;;-13.25;100.00;100183.53;5033584;28;20044;-64
2023/11/26 01:20:48;;;;;;;22.80;12.65;;;;;;;-13.22;100.00;100180.91;5033205;28;20836;-64
2023/11/26 01:23:14;;;;;;;18.13;11.23;;;;;;;-12.97;100.00;100205.19;5032926;28;20033;-63
2023/11/26 01:25:40;;;;;;;17.17;11.70;;;;;;;-13.06;100.00;100207.91;5032795;28;20427;-63
2023/11/26 01:28:07;;;;;;;22.33;13.47;;;;;;;-13.15;100.00;100208.09;5031668;28;20064;-64
2023/11/26 01:30:32;;;;;;;19.83;11.45;;;;;;;-13.61;100.00;100157.69;5032711;28;20515;-65
2023/11/26 01:32:58;;;;;;;19.43;12.30;;;;;;;-13.81;100.00;100126.50;5032130;28;20038;-65
2023/11/26 01:35:24;;;;;;;21.70;12.60;;;;;;;-13.41;100.00;100202.59;5032917;28;20036;-66
2023/11/26 01:37:49;;;;;;;18.83;11.17;;;;;;;-13.53;100.00;100212.19;5032593;28;20034;-65
2023/11/26 01:40:15;;;;;;;19.53;12.43;;;;;;;-13.42;100.00;100221.41;5032794;28;20045;-64
2023/11/26 01:42:43;;;;;;;25.40;12.60;;;;;;;-13.37;100.00;100230.69;5032636;28;20377;-65
2023/11/26 01:45:11;;;;;;;22.40;12.05;;;;;;;-13.48;100.00;100210.41;5032348;28;20038;-65
2023/11/26 01:47:38;;;;;;;18.55;12.23;;;;;;;-13.37;100.00;100229.84;5031221;28;20131;-65
2023/11/26 01:50:06;;;;;;;13.52;10.40;;;;;;;-13.59;100.00;100217.41;5032551;28;20547;-65
2023/11/26 01:52:32;;;;;;;26.75;10.80;;;;;;;-13.58;100.00;100226.81;5032476;28;20080;-66
2023/11/26 01:54:58;;;;;;;22.60;12.20;;;;;;;-13.46;100.00;100251.34;5032673;28;20578;-64
2023/11/26 01:57:24;;;;;;;17.60;10.97;;;;;;;-13.50;100.00;100240.31;5033292;28;20071;-65
2023/11/26 01:59:49;;;;;;;22.95;12.65;;;;;;;-13.32;100.00;100228.06;5032230;28;20037;-63
2023/11/26 02:02:15;;;;;;;27.30;13.43;;;;;;;-13.20;100.00;100243.22;5033078;28;20033;-66
2023/11/26 02:04:41;;;;;;;27.53;14.77;;;;;;;-14.11;100.00;100082.63;5033313;28;20033;-64
2023/11/26 02:07:07;;;;;;;28.75;12.75;;;;;;;-13.34;100.00;100204.19;5033056;28;20037;-64
2023/11/26 02:09:33;;;;;;;30.88;15.75;;;;;;;-13.04;100.00;100234.34;5033799;28;20041;-64
2023/11/26 02:11:58;;;;;;;27.77;16.13;;;;;;;-13.09;100.00;100220.78;5033612;28;20063;-66
2023/11/26 02:14:24;;;;;;;30.13;14.30;;;;;;;-13.13;100.00;100222.56;5034089;28;20084;-64
2023/11/26 02:16:51;;;;;;;30.42;14.63;;;;;;;-12.89;100.00;100226.38;5032517;28;20033;-62
2023/11/26 02:19:35;;;;;;;32.67;17.07;;;;;;;-12.81;100.00;100223.66;5032198;28;20447;-64
2023/11/26 02:22:01;;;;;;;34.13;15.65;;;;;;;-12.68;100.00;100242.22;5032066;28;20065;-64
2023/11/26 02:24:31;;;;;;;24.23;14.85;;;;;;;-12.63;100.00;100250.69;5032103;28;20038;-64
2023/11/26 02:26:57;;;;;;;32.30;17.00;;;;;;;-12.83;100.00;100216.00;5032538;28;20595;-64
2023/11/26 02:29:24;;;;;;;32.30;14.25;;;;;;;-13.04;100.00;100149.75;5032087;28;20099;-67
2023/11/26 02:31:50;;;;;;;31.90;15.38;;;;;;;-12.42;100.00;100222.03;5031674;28;20353;-64
2023/11/26 02:34:16;;;;;;;32.55;16.75;;;;;;;-11.99;100.00;100251.88;5031889;28;20038;-64
2023/11/26 02:36:42;;;;;;;29.43;15.47;;;;;;;-12.07;100.00;100228.13;5031689;28;20512;-65
2023/11/26 02:39:09;;;;;;;25.73;14.77;;;;;;;-11.96;100.00;100255.22;5031414;28;20118;-65
2023/11/26 02:41:35;;;;;;;28.77;14.98;;;;;;;-12.04;100.00;100235.75;5031707;28;20037;-65
2023/11/26 02:44:01;;;;;;;30.35;15.00;;;;;;;-11.97;100.00;100237.28;5031671;28;20029;-65
2023/11/26 02:46:27;;;;;;;33.42;15.75;;;;;;;-11.80;100.00;100258.31;5032131;28;20037;-64
2023/11/26 02:48:53;;;;;;;36.57;14.47;;;;;;;-11.67;100.00;100262.22;5032360;28;20033;-65
2023/11/26 02:51:19;;;;;;;30.77;16.40;;;;;;;-11.60;100.00;100268.91;5033156;28;20045;-65
2023/11/26 02:53:45;;;;;;;37.03;19.07;;;;;;;-11.83;100.00;100235.28;5031833;28;20034;-66
2023/11/26 02:56:12;;;;;;;31.53;15.03;;;;;;;-11.62;100.00;100255.25;5031383;28;20350;-66
2023/11/26 02:58:41;;;;;;;31.48;16.25;;;;;;;-11.43;100.00;100265.09;5031627;28;20041;-64
2023/11/26 03:01:07;;;;;;;33.67;15.93;;;;;;;-11.30;100.00;100287.88;5031530;28;20036;-65
2023/11/26 03:03:33;;;;;;;32.80;15.32;;;;;;;-11.17;100.00;100272.19;5031430;28;20092;-64
2023/11/26 03:05:59;;;;;;;25.92;14.45;;;;;;;-11.22;100.00;100277.44;5031673;28;20033;-64
2023/11/26 03:08:32;;;;;;;30.50;16.13;;;;;;;-11.26;100.00;100268.13;5030099;28;20048;-64
2023/11/26 03:13:43;;;;;;;37.00;14.50;;;;;;;-11.30;100.00;100218.50;5031234;28;20033;-65
2023/11/26 03:16:11;;;;;;;33.77;16.43;;;;;;;-11.06;100.00;100271.00;5032258;28;20090;-66
2023/11/26 03:18:36;;;;;;;39.33;14.07;;;;;;;-11.22;100.00;100246.59;5031328;28;20037;-65
2023/11/26 03:21:03;;;;;;;36.93;16.43;;;;;;;-11.04;100.00;100271.81;5032126;28;20060;-64
2023/11/26 03:23:30;;;;;;;31.38;15.98;;;;;;;-11.07;100.00;100261.63;5029797;28;20076;-64
2023/11/26 03:25:57;;;;;;;35.20;14.43;;;;;;;-11.08;100.00;100271.94;5037292;28;20122;-64
2023/11/26 03:28:22;;;;;;;41.45;14.10;;;;;;;-11.15;100.00;100286.69;5035823;28;20492;-65
2023/11/26 03:30:52;;;;;;;35.27;15.97;;;;;;;-11.37;100.00;100242.66;5036615;28;20038;-66
2023/11/26 03:33:18;;;;;;;36.33;14.82;;;;;;;-11.15;100.00;100284.13;5046112;28;20395;-64
2023/11/26 03:35:47;;;;;;;31.47;15.33;;;;;;;-11.12;100.00;100273.75;5048207;28;20064;-65
2023/11/26 03:38:13;;;;;;;;;;;;;;;-10.90;100.00;100286.06;5044066;28;20353;-64
2023/11/26 03:40:39;;;;;;;28.57;16.20;;;;;;;-10.82;100.00;100281.56;5039254;28;20384;-66
2023/11/26 03:43:05;;;;;;;33.30;16.35;;;;;;;-10.99;100.00;100264.81;5036249;28;20423;-64
2023/11/26 03:45:31;;;;;;;37.75;14.68;;;;;;;-10.98;100.00;100289.69;5035350;28;20030;-65
2023/11/26 03:47:57;;;;;;;23.08;10.50;;;;;;;-11.11;100.00;100282.31;5034870;28;20075;-65
2023/11/26 03:50:23;;;;;;;30.17;13.83;;;;;;;-11.24;100.00;100276.63;5034008;28;20069;-65
2023/11/26 03:52:49;;;;;;;22.23;12.87;;;;;;;-11.31;100.00;100278.50;5034669;28;20037;-65
2023/11/26 03:55:14;;;;;;;20.30;11.73;;;;;;;-11.62;100.00;100216.72;5034620;28;20030;-65
2023/11/26 03:57:41;;;;;;;22.98;10.75;;;;;;;-11.27;100.00;100262.13;5034476;28;20040;-65
2023/11/26 04:00:10;;;;;;;37.75;15.68;;;;;;;-11.12;100.00;100266.03;5034409;28;20037;-67
2023/11/26 04:02:36;;;;;;;20.25;13.07;;;;;;;-10.95;100.00;100271.59;5034331;28;20041;-66
2023/11/26 04:05:04;;;;;;;24.23;13.00;;;;;;;-11.27;100.00;100209.88;5034601;28;20033;-63
2023/11/26 04:07:31;;;;;;;26.50;13.15;;;;;;;-10.88;100.00;100289.44;5034345;28;20045;-64
2023/11/26 04:09:57;;;;;;;18.95;11.63;;;;;;;-10.85;100.00;100299.66;5034584;28;20509;-64
2023/11/26 04:12:23;;;;;;;24.17;13.27;;;;;;;-10.92;100.00;100280.97;5034140;28;20036;-65
2023/11/26 04:14:54;;;;;;;22.83;11.73;;;;;;;-10.74;100.00;100302.78;5033868;28;20033;-65
2023/11/26 04:17:21;;;;;;;28.58;13.90;;;;;;;-10.73;100.00;100305.31;5033819;28;20037;-64
2023/11/26 04:19:48;;;;;;;29.23;14.68;;;;;;;-10.93;100.00;100306.72;5034637;28;20052;-65
2023/11/26 04:22:13;;;;;;;27.83;14.30;;;;;;;-11.00;100.00;100300.88;5034225;28;20149;-64
2023/11/26 04:24:42;;;;;;;27.43;13.63;;;;;;;-10.90;100.00;100304.91;5033966;28;20541;-65
2023/11/26 04:27:09;;;;;;;24.55;14.38;;;;;;;-10.62;100.00;100323.06;5016230;28;20523;-64
2023/11/26 04:29:35;;;;;;;26.98;14.25;;;;;;;-10.66;100.00;100301.69;5033757;28;20401;-65
2023/11/26 04:32:01;;;;;;;22.70;14.27;;;;;;;-10.60;100.00;100310.13;5033775;28;20389;-66
2023/11/26 04:34:26;;;;;;;23.20;12.60;;;;;;;-10.90;100.00;100275.78;5033588;28;20045;-65
2023/11/26 04:36:52;;;;;;;23.83;12.37;;;;;;;-10.77;100.00;100303.69;5033814;28;20515;-64
2023/11/26 04:39:17;;;;;;;23.33;13.77;;;;;;;-10.69;100.00;100311.25;5033896;28;20273;-65
2023/11/26 04:41:43;;;;;;;20.77;11.67;;;;;;;-10.97;100.00;100245.09;5034188;28;20044;-64
2023/11/26 04:44:08;;;;;;;23.40;13.70;;;;;;;-10.52;100.00;100314.19;5033625;28;20049;-65
2023/11/26 04:46:34;;;;;;;22.93;13.97;;;;;;;-10.50;100.00;100317.56;5032386;28;20037;-66
2023/11/26 04:49:00;;;;;;;24.13;14.03;;;;;;;-10.54;100.00;100307.41;5033833;28;20033;-65
2023/11/26 04:51:25;;;;;;;22.90;12.73;;;;;;;-10.49;100.00;100306.38;5033843;28;20120;-66
2023/11/26 04:53:51;;;;;;;16.60;11.17;;;;;;;-10.44;100.00;100301.94;5033462;28;20351;-65
2023/11/26 04:56:18;;;;;;;18.60;11.53;;;;;;;-10.34;100.00;100344.59;5033722;28;20037;-64
2023/11/26 04:58:44;;;;;;;20.95;12.68;;;;;;;-10.53;100.00;100315.06;5033345;28;20041;-66
2023/11/26 05:01:16;;;;;;;20.80;12.15;;;;;;;-10.44;100.00;100337.97;5033408;28;20038;-63
2023/11/26 05:03:42;;;;;;;27.88;13.60;;;;;;;-10.41;100.00;100335.34;5033512;28;20049;-66
2023/11/26 05:06:09;;;;;;;23.07;14.53;;;;;;;-10.23;100.00;100351.16;5033518;28;20556;-65
2023/11/26 05:08:35;;;;;;;24.08;13.88;;;;;;;-10.13;100.00;100347.41;5033222;28;20408;-64
2023/11/26 05:11:01;;;;;;;21.17;11.93;;;;;;;-10.12;100.00;100324.22;5033267;28;20120;-64
2023/11/26 05:13:27;;;;;;;21.48;11.95;;;;;;;-10.18;100.00;100311.47;5033228;28;20069;-65
2023/11/26 05:15:53;;;;;;;24.83;13.57;;;;;;;-10.04;100.00;100335.13;5033509;28;20075;-67
2023/11/26 05:18:20;;;;;;;18.40;13.33;;;;;;;-10.06;100.00;100323.19;5033435;28;20559;-65
2023/11/26 05:20:47;;;;;;;18.80;12.50;;;;;;;-10.92;100.00;100177.25;5033063;28;20124;-66
2023/11/26 05:23:13;;;;;;;18.00;12.23;;;;;;;-9.81;100.00;100355.09;5033038;28;20033;-65
2023/11/26 05:25:38;;;;;;;17.50;11.83;;;;;;;-9.86;100.00;100338.03;5031824;28;20048;-64
2023/11/26 05:28:04;;;;;;;20.77;14.57;;;;;;;-9.86;100.00;100362.06;5031423;28;20124;-67
2023/11/26 05:30:30;;;;;;;20.85;12.45;;;;;;;-10.10;100.00;100337.03;5032652;28;20045;-64
2023/11/26 05:32:57;;;;;;;16.03;10.60;;;;;;;-10.04;100.00;100344.59;5032974;28;20041;-68
2023/11/26 05:35:23;;;;;;;24.08;13.18;;;;;;;-9.84;100.00;100354.31;5032583;28;20038;-67
2023/11/26 05:37:49;;;;;;;31.25;18.20;;;;;;;-9.71;100.00;100368.53;5033363;28;20128;-65
2023/11/26 05:40:15;;;;;;;25.13;12.53;;;;;;;-9.71;100.00;100360.81;5033854;28;20167;-66
2023/11/26 05:42:40;;;;;;;19.23;11.73;;;;;;;-9.88;100.00;100332.94;5032672;28;20065;-65
2023/11/26 05:45:06;;;;;;;21.53;11.70;;;;;;;-9.74;100.00;100356.59;5031790;28;20041;-65
2023/11/26 05:47:32;;;;;;;22.43;12.67;;;;;;;-9.64;100.00;100387.22;5033427;28;20043;-65
2023/11/26 05:49:58;;;;;;;17.47;11.63;;;;;;;-9.65;100.00;100380.38;5033815;28;20739;-65
2023/11/26 05:52:24;;;;;;;16.23;11.48;;;;;;;-9.55;100.00;100381.78;5032466;28;20040;-64
2023/11/26 05:54:51;;;;;;;17.10;11.83;;;;;;;-9.54;100.00;100380.91;5032318;28;20033;-65
2023/11/26 05:57:17;;;;;;;15.15;10.43;;;;;;;-9.51;100.00;100383.41;5033241;28;20025;-65
2023/11/26 05:59:43;;;;;;;15.00;10.60;;;;;;;-9.39;100.00;100396.78;5034810;28;20104;-66
2023/11/26 06:02:08;;;;;;;14.33;9.83;;;;;;;-9.36;100.00;100393.25;5034274;28;20026;-65
2023/11/26 06:04:34;;;;;;;16.47;11.23;;;;;;;-9.30;100.00;100387.91;5034919;28;20042;-67
2023/11/26 06:07:00;;;;;;;15.93;11.23;;;;;;;-9.40;100.00;100381.34;5035081;28;20049;-65
2023/11/26 06:09:26;;;;;;;17.60;12.53;;;;;;;-9.56;100.00;100374.94;5036962;28;20041;-66
2023/11/26 06:11:52;;;;;;;17.27;11.05;;;;;;;-9.66;100.00;100368.41;5032408;28;20473;-66
2023/11/26 06:14:19;;;;;;;15.75;11.18;;;;;;;-9.48;100.00;100384.16;5031979;28;20068;-66
2023/11/26 06:16:45;;;;;;;13.50;10.27;;;;;;;-9.32;100.00;100407.75;5030597;28;20504;-66
2023/11/26 06:19:12;;;;;;;14.88;10.70;;;;;;;-9.49;100.00;100382.47;5031837;28;20489;-66
2023/11/26 06:21:38;;;;;;;17.88;12.23;;;;;;;-9.41;100.00;100405.44;5031876;28;20096;-65
2023/11/26 06:24:05;;;;;;;14.57;9.37;;;;;;;-9.35;100.00;100401.84;5031377;28;20049;-65
2023/11/26 06:26:31;;;;;;;15.05;9.10;;;;;;;-9.52;100.00;100381.72;5027237;28;20041;-68
2023/11/26 06:28:58;;;;;;;15.13;10.43;;;;;;;-9.52;100.00;100376.56;5031258;28;20143;-66
2023/11/26 06:31:24;;;;;;;13.25;9.23;;;;;;;-9.61;100.00;100361.38;5031846;28;20485;-65
2023/11/26 06:33:51;;;;;;;24.10;12.70;;;;;;;-9.50;100.00;100385.94;5031641;28;20040;-64
2023/11/26 06:36:24;;;;;;;15.77;11.27;;;;;;;-9.56;100.00;100396.41;5031537;28;20183;-64
2023/11/26 06:38:51;;;;;;;13.73;9.18;;;;;;;-9.53;100.00;100403.25;5031469;28;20052;-67
2023/11/26 06:41:24;;;;;;;13.13;10.50;;;;;;;-9.55;100.00;100384.38;5029970;28;20444;-67
2023/11/26 06:43:54;;;;;;;13.18;9.43;;;;;;;-9.43;100.00;100402.06;5031410;28;20397;-69
2023/11/26 06:46:23;;;;;;;15.32;10.15;;;;;;;-9.41;100.00;100398.56;5031301;28;20128;-69
2023/11/26 06:48:53;;;;;;;13.40;8.90;;;;;;;-9.38;100.00;100397.63;5031546;28;20084;-67
2023/11/26 06:51:19;;;;;;;11.80;8.27;;;;;;;-9.60;100.00;100373.34;5030075;28;20042;-68
2023/11/26 06:53:46;;;;;;;11.98;9.35;;;;;;;-9.62;100.00;100341.63;5030018;28;20055;-67
2023/11/26 06:56:11;;;;;;;15.85;10.05;;;;;;;-9.34;100.00;100390.63;5031337;28;20088;-67
2023/11/26 06:58:40;;;;;;;12.50;7.63;;;;;;;-9.33;100.00;100403.47;5031000;28;20045;-65
2023/11/26 07:01:06;;;;;;;;;;;;;;;-9.29;100.00;100405.06;5031995;28;20517;-68
2023/11/26 07:03:32;;;;;;;16.03;10.83;;;;;;;-9.46;100.00;100394.44;5031234;28;19924;-67
2023/11/26 07:05:59;;;;;;;10.68;8.52;;;;;;;-9.26;100.00;100415.28;5031309;28;20038;-66
2023/11/26 07:08:26;;;;;;;13.18;9.27;;;;;;;-9.39;100.00;100375.31;5030033;28;20508;-68
2023/11/26 07:10:52;;;;;;;15.38;10.45;;;;;;;-9.29;100.00;100410.22;5031090;28;20495;-66
2023/11/26 07:13:17;;;;;;;13.67;9.77;;;;;;;-9.18;100.00;100413.34;5031380;28;20038;-67
2023/11/26 07:15:43;;;;;;;12.60;8.73;;;;;;;-9.49;100.00;100359.28;5031101;28;20037;-67
2023/11/26 07:18:09;;;;;;;17.70;11.53;;;;;;;-9.25;100.00;100396.38;5030946;28;20467;-68
2023/11/26 07:20:34;;;;;;;14.03;10.37;;;;;;;-9.19;100.00;100414.22;5030842;28;20040;-65
2023/11/26 07:23:00;;;;;;;14.60;8.70;;;;;;;-9.33;100.00;100394.91;5031092;28;20278;-65
2023/11/26 07:25:26;;;;;;;15.60;11.20;;;;;;;-9.19;100.00;100415.97;5030858;28;20090;-65
2023/11/26 07:27:53;;;;;;;10.73;8.33;;;;;;;-9.21;100.00;100410.84;5030747;28;20308;-66
2023/11/26 07:30:19;;;;;;;13.07;8.32;;;;;;;-9.15;100.00;100423.56;5030946;28;20037;-66
2023/11/26 07:32:44;;;;;;;12.33;9.47;;;;;;;-9.25;100.00;100406.69;5030858;28;20090;-66
2023/11/26 07:35:10;;;;;;;11.97;8.70;;;;;;;-9.12;100.00;100427.78;5030728;28;20029;-65
2023/11/26 07:37:35;;;;;;;12.77;8.87;;;;;;;-9.07;100.00;100436.22;5030891;28;20053;-68
2023/11/26 07:40:05;;;;;;;16.97;8.73;;;;;;;-9.10;100.00;100420.84;5031271;28;20447;-67
2023/11/26 07:42:33;;;;;;;12.43;8.35;;;;;;;-9.11;100.00;100439.78;5031415;28;20392;-66
2023/11/26 07:45:07;;;;;;;13.77;9.65;;;;;;;-9.20;100.00;100435.75;5030957;28;20041;-69
2023/11/26 07:47:32;;;;;;;11.20;9.18;;;;;;;-9.28;100.00;100417.06;5031000;28;20509;-64
2023/11/26 07:49:58;;;;;;;11.53;8.37;;;;;;;-9.11;100.00;100435.47;5031209;28;20038;-65
2023/11/26 07:52:23;;;;;;;14.17;10.07;;;;;;;-8.92;100.00;100446.06;5031169;28;20428;-68
2023/11/26 07:54:51;;;;;;;12.07;9.20;;;;;;;-9.72;100.00;100334.19;5030993;28;20465;-68
2023/11/26 07:57:17;;;;;;;14.05;9.02;;;;;;;-9.02;100.00;100439.50;5030710;28;20044;-69
2023/11/26 07:59:43;;;;;;;14.80;9.17;;;;;;;-9.02;100.00;100459.28;5030257;28;20396;-65
2023/11/26 08:02:10;;;;;;;13.18;9.27;;;;;;;-9.07;100.00;100437.06;5029291;28;20040;-63
2023/11/26 08:04:39;;;;;;;12.85;8.65;;;;;;;-9.38;100.00;100390.72;5030855;28;20521;-66
2023/11/26 08:07:05;;;;;;;14.13;8.80;;;;;;;-9.32;100.00;100420.63;5030812;28;20473;-66
2023/11/26 08:09:32;;;;;;;14.52;8.82;;;;;;;-9.25;100.00;100458.25;5030009;28;20061;-63
2023/11/26 08:12:00;;;;;;;14.32;9.10;;;;;;;-10.02;100.00;100332.50;5034407;28;20029;-66
2023/11/26 08:14:27;;;;;;;14.32;11.85;;;;;;;-9.17;100.00;100461.44;5034041;28;20458;-66
2023/11/26 08:16:54;;;;;;;15.32;10.38;;;;;;;-9.03;100.00;100467.91;5033957;28;20547;-68
2023/11/26 08:19:23;;;;;;;15.55;10.27;;;;;;;-8.89;100.00;100460.63;5033262;28;20144;-65
2023/11/26 08:21:49;;;;;;;14.32;10.43;;;;;;;-9.02;100.00;100443.81;5034187;28;20696;-70
2023/11/26 08:24:19;;;;;;;15.18;10.77;;;;;;;-8.88;100.00;100464.88;5016241;28;20390;-67
2023/11/26 08:26:46;;;;;;;14.15;9.23;;;;;;;-9.11;100.00;100450.09;5035057;28;20029;-64
2023/11/26 08:29:16;;;;;;;12.77;9.38;;;;;;;-8.98;100.00;100468.63;5035175;28;20033;-66
2023/11/26 08:31:53;;;;;;;15.55;8.88;;;;;;;-8.87;100.00;100477.72;5032988;28;20417;-69
2023/11/26 08:34:18;;;;;;;16.08;9.93;;;;;;;-8.98;100.00;100443.66;5032918;28;20040;-70
2023/11/26 08:36:45;;;;;;;13.07;10.30;;;;;;;-8.91;100.00;100441.75;5032798;28;20481;-70
2023/11/26 08:39:18;;;;;;;11.25;8.68;;;;;;;-8.71;100.00;100479.81;5036546;28;20068;-70
2023/11/26 08:41:45;;;;;;;13.52;9.68;;;;;;;-8.78;100.00;100458.53;5033790;28;20136;-67
2023/11/26 08:44:12;;;;;;;10.65;8.23;;;;;;;-8.90;100.00;100438.28;5033609;28;20087;-68
2023/11/26 08:46:41;;;;;;;12.35;9.10;;;;;;;-8.75;100.00;100471.34;5033931;28;20083;-68
2023/11/26 08:49:08;;;;;;;14.35;9.95;;;;;;;-8.99;100.00;100443.72;5033816;28;20444;-69
2023/11/26 08:51:40;;;;;;;13.48;10.13;;;;;;;-8.83;100.00;100471.59;5033882;28;20034;-68
2023/11/26 08:54:06;;;;;;;15.02;10.75;;;;;;;-8.81;100.00;100471.53;5033601;28;20064;-65
2023/11/26 08:56:31;;;;;;;14.30;9.63;;;;;;;-8.62;99.28;100490.72;5033086;28;20485;-65
2023/11/26 08:58:57;;;;;;;13.03;9.77;;;;;;;-8.73;99.43;100481.59;5033511;28;20117;-66
2023/11/26 09:01:22;;;;;;;15.90;10.50;;;;;;;-9.23;100.00;100414.38;5033112;28;20393;-65
2023/11/26 09:03:48;;;;;;;16.40;9.80;;;;;;;-8.86;100.00;100476.00;5032116;28;20033;-66
2023/11/26 09:06:14;;;;;;;16.63;10.43;;;;;;;-8.77;99.82;100484.28;5031797;28;20447;-68
2023/11/26 09:08:39;;;;;;;17.97;11.47;;;;;;;-8.78;100.00;100486.91;5033281;28;20040;-67
2023/11/26 09:11:06;;;;;;;16.63;10.30;;;;;;;-8.68;100.00;100490.88;5032740;28;20036;-66
2023/11/26 09:13:32;;;;;;;14.75;9.57;;;;;;;-8.78;99.61;100468.84;5033059;28;20029;-66
2023/11/26 09:15:59;;;;;;;14.32;11.18;;;;;;;-8.63;100.00;100489.03;5033136;28;20048;-66
2023/11/26 09:18:25;;;;;;;15.68;10.10;;;;;;;-8.70;99.27;100466.88;5033158;28;20037;-64
2023/11/26 09:20:50;;;;;;;22.27;11.47;;;;;;;-8.49;98.53;100499.75;5032141;28;20040;-64
2023/11/26 09:23:16;;;;;;;16.67;11.47;;;;;;;-8.59;97.27;100485.47;5032486;28;20037;-67
2023/11/26 09:25:42;;;;;;;19.33;12.73;;;;;;;-8.94;98.98;100426.38;5033208;28;20029;-65
2023/11/26 09:28:09;;;;;;;13.67;10.90;;;;;;;-8.44;98.70;100482.38;5031475;28;20058;-64
2023/11/26 09:30:35;;;;;;;14.85;10.25;;;;;;;-8.28;97.38;100499.94;5034026;28;20045;-66
2023/11/26 09:33:01;;;;;;;13.70;9.30;;;;;;;-8.18;97.62;100496.97;5030470;28;20697;-65
2023/11/26 09:35:26;;;;;;;14.53;10.27;;;;;;;-8.16;97.38;100481.41;5028894;28;20128;-67
2023/11/26 09:37:52;;;;;;;17.73;11.20;;;;;;;-8.07;97.69;100483.72;5032380;28;20121;-64
2023/11/26 09:40:17;;;;;;;16.70;10.20;;;;;;;-8.09;96.00;100497.56;5032506;28;20037;-65
2023/11/26 09:42:51;;;;;;;12.70;9.13;;;;;;;-8.30;95.19;100497.41;5031315;28;20120;-66
2023/11/26 09:45:20;;;;;;;16.92;9.32;;;;;;;-8.33;94.88;100497.50;5032365;28;20144;-67
2023/11/26 09:47:46;;;;;;;14.73;9.77;;;;;;;-8.29;96.04;100495.66;5034355;28;20137;-65
2023/11/26 09:50:12;;;;;;;14.00;10.57;;;;;;;-8.24;94.54;100512.69;5038110;28;20077;-65
2023/11/26 09:52:38;;;;;;;16.02;11.07;;;;;;;-8.40;95.67;100490.84;5032303;28;20148;-67
2023/11/26 09:55:05;;;;;;;18.85;11.48;;;;;;;-8.22;96.45;100515.22;5032012;28;20029;-67
2023/11/26 09:57:31;;;;;;;17.27;10.68;;;;;;;-8.08;96.96;100518.22;5044431;28;20041;-64
2023/11/26 09:59:58;;;;;;;17.92;11.57;;;;;;;-8.22;96.09;100489.38;5052061;28;20025;-65
2023/11/26 10:02:25;;;;;;;15.90;11.85;;;;;;;-8.26;95.99;100516.22;5051982;28;20044;-65
2023/11/26 10:04:52;;;;;;;15.80;12.18;;;;;;;-8.74;96.86;100449.78;5051814;28;20033;-67
2023/11/26 10:07:32;;;;;;;15.18;10.35;;;;;;;-8.40;97.24;100505.50;5051622;28;20111;-64
2023/11/26 10:10:09;;;;;;;17.38;10.40;;;;;;;-8.52;97.91;100475.78;5052001;28;20052;-66
2023/11/26 10:13:04;;;;;;;15.35;10.10;;;;;;;-8.18;98.06;100516.81;5051958;28;20094;-67
2023/11/26 10:15:36;;;;;;;14.00;10.15;;;;;;;-8.33;97.72;100486.34;5051823;28;20048;-68
2023/11/26 10:18:07;;;;;;;15.82;12.05;;;;;;;-9.32;97.76;100351.00;5050720;28;20148;-68
2023/11/26 10:20:43;;;;;;;16.45;10.30;;;;;;;-8.41;98.67;100515.00;5034574;28;20043;-67
2023/11/26 10:23:15;;;;;;;15.52;11.20;;;;;;;-8.84;98.63;100446.66;5051850;28;20467;-67
2023/11/26 10:25:42;;;;;;;18.55;12.25;;;;;;;-8.44;100.00;100507.34;5051584;28;20033;-68
2023/11/26 10:28:17;;;;;;;16.00;10.23;;;;;;;-8.26;100.00;100518.81;5050348;28;20057;-65
2023/11/26 10:30:43;;;;;;;16.20;10.30;;;;;;;-8.06;100.00;100524.16;5045900;28;20052;-66
2023/11/26 10:33:11;;;;;;;17.08;11.50;;;;;;;-8.13;97.78;100509.75;5021981;28;20125;-68
2023/11/26 10:35:48;;;;;;;18.65;12.32;;;;;;;-8.17;99.21;100497.81;5021774;28;20029;-66
2023/11/26 10:38:16;;;;;;;14.30;10.98;;;;;;;-8.19;99.81;100489.28;5034437;28;20034;-70
2023/11/26 10:40:45;;;;;;;16.58;11.00;;;;;;;-8.16;99.62;100479.69;5041586;28;20076;-68
2023/11/26 10:43:11;;;;;;;13.20;10.20;;;;;;;-8.59;97.90;100422.66;5043535;28;20040;-69
2023/11/26 10:45:38;;;;;;;17.83;11.15;;;;;;;-8.14;98.53;100514.06;5036444;28;20493;-67
2023/11/26 10:48:13;;;;;;;18.38;13.18;;;;;;;-8.33;100.00;100501.84;5020081;28;20442;-67
2023/11/26 10:50:41;;;;;;;19.30;11.68;;;;;;;-8.40;100.00;100501.19;5022769;28;20051;-67
2023/11/26 10:53:21;;;;;;;;;;;;;;;-8.26;100.00;100514.47;5024821;28;20044;-69
2023/11/26 10:55:50;;;;;;;21.15;12.63;;;;;;;-8.23;100.00;100510.94;5027048;28;20380;-70
2023/11/26 10:58:17;;;;;;;13.52;9.85;;;;;;;-8.20;99.57;100524.59;5022828;28;20136;-70
2023/11/26 11:00:48;;;;;;;16.73;10.65;;;;;;;-8.81;99.47;100422.50;5018893;28;20025;-69
2023/11/26 11:03:14;;;;;;;18.08;12.68;;;;;;;-8.47;100.00;100490.22;5020941;28;20046;-67